createdAt,value
2018-04-17T00:00:50.552Z,10.67
2018-04-17T00:05:52.149Z,10.87
2018-04-17T00:10:53.762Z,11.80
2018-04-17T00:15:55.304Z,10.40
2018-04-17T00:20:56.898Z,10.77
2018-04-17T00:25:58.510Z,10.80
2018-04-17T00:31:00.846Z,9.13
2018-04-17T00:36:02.383Z,9.37
2018-04-17T00:41:03.953Z,10.57
2018-04-17T00:46:06.240Z,10.47
2018-04-17T00:51:07.918Z,10.00
2018-04-17T00:56:09.457Z,10.63
2018-04-17T01:01:10.977Z,10.80
2018-04-17T01:06:12.510Z,11.17
2018-04-17T01:11:14.806Z,10.40
2018-04-17T01:16:16.382Z,11.73
2018-04-17T01:21:17.967Z,12.47
2018-04-17T01:26:19.508Z,11.80
2018-04-17T01:31:21.020Z,14.83
2018-04-17T01:36:22.562Z,13.37
2018-04-17T01:41:24.208Z,12.23
2018-04-17T01:46:26.473Z,13.27
2018-04-17T01:51:28.785Z,14.07
2018-04-17T01:56:30.416Z,14.70
2018-04-17T02:01:32.128Z,14.20
2018-04-17T02:06:33.870Z,15.43
2018-04-17T02:11:35.452Z,15.73
2018-04-17T02:16:37.736Z,15.70
2018-04-17T02:21:40.201Z,16.87
2018-04-17T02:26:41.734Z,16.80
2018-04-17T02:31:43.291Z,16.40
2018-04-17T02:36:44.863Z,16.80
2018-04-17T02:41:46.488Z,15.30
2018-04-17T02:46:48.019Z,15.90
2018-04-17T02:51:49.595Z,15.67
2018-04-17T02:56:51.126Z,16.30
2018-04-17T03:01:52.662Z,13.87
2018-04-17T03:06:54.233Z,14.50
2018-04-17T03:11:56.507Z,15.10
2018-04-17T03:16:58.072Z,13.27
2018-04-17T03:21:59.792Z,13.73
2018-04-17T03:27:01.351Z,16.03
2018-04-17T03:32:02.936Z,13.13
2018-04-17T03:37:04.496Z,12.73
2018-04-17T03:42:06.132Z,15.60
2018-04-17T03:47:07.745Z,15.57
2018-04-17T03:52:09.279Z,16.60
2018-04-17T03:57:11.637Z,16.27
2018-04-17T04:02:13.128Z,16.30
2018-04-17T04:07:15.416Z,16.03
2018-04-17T04:12:17.728Z,16.20
2018-04-17T04:33:31.295Z,13.67
2018-04-17T04:38:32.875Z,15.50
2018-04-17T04:43:34.500Z,14.93
2018-04-17T04:48:36.829Z,14.83
2018-04-17T04:53:38.360Z,13.27
2018-04-17T04:58:39.927Z,16.77
2018-04-17T05:03:42.714Z,15.20
2018-04-17T05:08:44.991Z,13.93
2018-04-17T05:13:47.234Z,14.13
2018-04-17T05:18:48.808Z,11.53
2018-04-17T05:23:50.365Z,11.87
2018-04-17T05:28:51.910Z,13.40
2018-04-17T05:33:53.419Z,13.57
2018-04-17T05:38:54.980Z,12.57
2018-04-17T05:43:56.581Z,10.80
2018-04-17T05:48:58.138Z,10.87
2018-04-17T05:53:59.611Z,11.60
2018-04-17T05:59:01.322Z,11.23
2018-04-17T06:04:02.798Z,11.40
2018-04-17T06:09:05.266Z,10.83
2018-04-17T06:14:07.511Z,12.60
2018-04-17T06:19:09.404Z,11.83
2018-04-17T06:24:10.946Z,12.03
2018-04-17T06:29:12.461Z,12.83
2018-04-17T06:34:14.144Z,12.73
2018-04-17T06:39:15.721Z,14.00
2018-04-17T06:44:17.320Z,14.40
2018-04-17T06:49:18.878Z,14.87
2018-04-17T06:54:20.641Z,17.70
2018-04-17T06:59:22.209Z,17.20
2018-04-17T07:04:23.716Z,17.07
2018-04-17T07:09:25.230Z,17.17
2018-04-17T07:14:26.843Z,17.10
2018-04-17T07:19:28.412Z,16.93
2018-04-17T07:24:29.980Z,17.80
2018-04-17T07:29:31.558Z,18.17
2018-04-17T07:34:33.107Z,18.10
2018-04-17T07:39:34.679Z,17.90
2018-04-17T07:44:36.305Z,18.50
2018-04-17T07:49:37.829Z,20.50
2018-04-17T07:54:39.408Z,21.80
2018-04-17T07:59:40.981Z,22.57
2018-04-17T08:04:43.231Z,22.30
2018-04-17T08:09:44.839Z,23.60
2018-04-17T08:14:46.469Z,22.97
2018-04-17T08:19:48.004Z,23.67
2018-04-17T08:24:49.561Z,23.00
2018-04-17T08:29:51.193Z,23.47
2018-04-17T08:34:52.715Z,22.83
2018-04-17T08:39:54.656Z,22.97
2018-04-17T08:44:56.540Z,25.00
2018-04-17T08:49:59.035Z,23.90
2018-04-17T08:55:01.339Z,26.87
2018-04-17T09:00:03.096Z,23.30
2018-04-17T09:05:04.646Z,24.43
2018-04-17T09:10:06.196Z,24.63
2018-04-17T09:15:07.790Z,25.37
2018-04-17T09:20:10.071Z,23.10
2018-04-17T09:25:11.632Z,24.17
2018-04-17T09:30:13.167Z,23.60
2018-04-17T09:35:14.726Z,24.97
2018-04-17T09:40:16.471Z,21.47
2018-04-17T09:45:18.120Z,19.73
2018-04-17T09:50:19.638Z,21.40
2018-04-17T09:55:21.117Z,21.90
2018-04-17T10:00:22.676Z,21.20
2018-04-17T10:05:24.175Z,20.63
2018-04-17T10:10:25.711Z,19.70
2018-04-17T10:15:27.237Z,18.13
2018-04-17T10:20:29.526Z,20.23
2018-04-17T10:25:31.785Z,18.10
2018-04-17T10:30:33.331Z,14.93
2018-04-17T10:35:34.912Z,16.37
2018-04-17T10:40:36.625Z,17.80
2018-04-17T10:45:38.221Z,16.47
2018-04-17T10:50:39.754Z,13.27
2018-04-17T10:55:42.022Z,11.50
2018-04-17T11:00:43.572Z,8.43
2018-04-17T11:05:45.104Z,7.30
2018-04-17T11:10:46.627Z,10.20
2018-04-17T11:15:48.894Z,5.37
2018-04-17T11:20:50.435Z,4.43
2018-04-17T11:25:51.981Z,5.60
2018-04-17T11:30:53.528Z,4.57
2018-04-17T11:35:55.874Z,6.40
2018-04-17T11:40:57.439Z,6.90
2018-04-17T11:45:58.987Z,7.40
2018-04-17T11:51:00.539Z,5.50
2018-04-17T11:56:02.132Z,4.77
2018-04-17T12:01:03.709Z,5.30
2018-04-17T12:06:05.368Z,5.40
2018-04-17T12:11:06.941Z,5.40
2018-04-17T12:16:08.490Z,4.60
2018-04-17T12:21:10.157Z,5.40
2018-04-17T12:26:11.666Z,4.90
2018-04-17T12:31:13.228Z,6.37
2018-04-17T12:36:14.803Z,6.40
2018-04-17T12:41:16.396Z,6.40
2018-04-17T12:46:18.691Z,5.20
2018-04-17T12:51:20.978Z,7.67
2018-04-17T12:56:22.547Z,5.27
2018-04-17T13:01:24.859Z,7.30
2018-04-17T13:06:26.456Z,6.53
2018-04-17T13:11:28.038Z,6.53
2018-04-17T13:16:29.658Z,6.53
2018-04-17T13:21:31.224Z,5.83
2018-04-17T13:26:32.852Z,4.80
2018-04-17T13:31:34.346Z,4.47
2018-04-17T13:36:36.661Z,5.20
2018-04-17T13:41:38.268Z,5.10
2018-04-17T13:46:39.823Z,5.13
2018-04-17T13:51:41.385Z,5.83
2018-04-17T13:56:42.916Z,6.00
2018-04-17T14:01:44.491Z,5.10
2018-04-17T14:06:46.074Z,4.77
2018-04-17T14:11:47.618Z,5.67
2018-04-17T14:16:49.955Z,4.53
2018-04-17T14:21:51.506Z,4.60
2018-04-17T14:26:53.072Z,5.10
2018-04-17T14:31:54.629Z,5.20
2018-04-17T14:36:56.235Z,4.50
2018-04-17T14:41:58.061Z,4.87
2018-04-17T14:46:59.640Z,5.07
2018-04-17T14:52:01.171Z,5.00
2018-04-17T14:57:03.489Z,5.67
2018-04-17T15:02:04.993Z,5.03
2018-04-17T15:07:06.591Z,5.33
2018-04-17T15:12:09.086Z,5.10
2018-04-17T15:17:11.351Z,4.53
2018-04-17T15:22:12.872Z,5.23
2018-04-17T15:27:14.411Z,5.00
2018-04-17T15:32:15.972Z,5.50
2018-04-17T15:37:18.348Z,5.03
2018-04-17T15:42:19.958Z,4.93
2018-04-17T15:47:21.541Z,5.60
2018-04-17T15:52:23.288Z,4.80
2018-04-17T15:57:25.583Z,5.50
2018-04-17T16:02:27.147Z,5.27
2018-04-17T16:07:28.809Z,4.50
2018-04-17T16:12:30.336Z,4.50
2018-04-17T16:17:33.428Z,4.90
2018-04-17T16:22:40.111Z,4.37
2018-04-17T16:27:41.683Z,4.40
2018-04-17T16:32:43.224Z,4.33
2018-04-17T16:37:44.816Z,4.80
2018-04-17T16:42:46.368Z,4.73
2018-04-17T16:47:47.864Z,4.90
2018-04-17T16:52:49.367Z,4.63
2018-04-17T16:57:51.715Z,5.80
2018-04-17T17:02:53.170Z,4.70
2018-04-17T17:07:54.893Z,5.03
2018-04-17T17:12:57.185Z,4.73
2018-04-17T17:17:59.430Z,4.27
2018-04-17T17:23:00.875Z,5.90
2018-04-17T17:28:02.362Z,5.10
2018-04-17T17:33:03.867Z,4.90
2018-04-17T17:38:06.085Z,4.67
2018-04-17T17:43:13.146Z,5.60
2018-04-17T17:48:15.425Z,4.80
2018-04-17T17:53:17.714Z,5.90
2018-04-17T17:58:20.033Z,6.27
2018-04-17T18:03:27.587Z,5.57
2018-04-17T18:08:29.181Z,5.50
2018-04-17T18:13:35.216Z,5.93
2018-04-17T18:18:36.826Z,6.43
2018-04-17T18:23:39.136Z,9.00
2018-04-17T18:28:40.713Z,7.63
2018-04-17T18:33:42.284Z,7.53
2018-04-17T18:38:43.852Z,7.87
2018-04-17T18:43:45.354Z,7.37
2018-04-17T18:48:46.969Z,8.30
2018-04-17T18:53:48.505Z,8.80
2018-04-17T18:58:50.126Z,7.83
2018-04-17T19:03:51.691Z,9.93
2018-04-17T19:08:53.263Z,11.83
2018-04-17T19:13:54.864Z,11.17
2018-04-17T19:18:56.439Z,9.47
2018-04-17T19:23:58.019Z,10.00
2018-04-17T19:28:59.557Z,11.80
2018-04-17T19:34:01.256Z,10.07
2018-04-17T19:39:02.838Z,9.70
2018-04-17T19:44:05.198Z,9.30
2018-04-17T19:49:06.764Z,10.10
2018-04-17T19:54:08.343Z,9.93
2018-04-17T19:59:10.012Z,10.13
2018-04-17T20:04:11.676Z,11.20
2018-04-17T20:09:13.297Z,10.40
2018-04-17T20:14:14.911Z,10.97
2018-04-17T20:19:16.728Z,10.27
2018-04-17T20:24:19.017Z,10.63
2018-04-17T20:29:21.366Z,10.47
2018-04-17T20:34:22.861Z,11.40
2018-04-17T20:39:25.253Z,10.70
2018-04-17T20:44:27.567Z,10.83
2018-04-17T20:49:29.163Z,12.30
2018-04-17T20:54:30.737Z,10.90
2018-04-17T20:59:32.284Z,11.00
2018-04-17T21:04:33.898Z,11.03
2018-04-17T21:09:35.710Z,12.00
2018-04-17T21:14:37.422Z,10.50
2018-04-17T21:19:39.006Z,10.33
2018-04-17T21:24:40.808Z,11.03
2018-04-17T21:29:49.272Z,10.70
2018-04-17T21:34:50.765Z,11.23
2018-04-17T21:39:52.358Z,10.73
2018-04-17T21:44:54.215Z,11.73
2018-04-17T21:49:55.953Z,10.73
2018-04-17T21:54:57.804Z,12.73
2018-04-17T21:59:59.343Z,12.00
2018-04-17T22:05:00.949Z,11.77
2018-04-17T22:10:02.532Z,11.57
2018-04-17T22:15:04.209Z,10.50
2018-04-17T22:20:05.949Z,10.73
2018-04-17T22:25:08.253Z,10.23
2018-04-17T22:30:09.838Z,11.03
2018-04-17T22:35:11.420Z,9.57
2018-04-17T22:40:12.934Z,9.03
2018-04-17T22:45:15.372Z,10.17
2018-04-17T22:50:16.902Z,11.00
2018-04-17T22:55:18.454Z,10.10
2018-04-17T23:00:20.791Z,9.57
2018-04-17T23:05:22.373Z,10.30
2018-04-17T23:10:23.920Z,12.23
2018-04-17T23:15:25.525Z,10.63
2018-04-17T23:20:27.256Z,11.20
2018-04-17T23:25:28.807Z,10.57
2018-04-17T23:30:30.355Z,9.10
2018-04-17T23:35:31.926Z,9.03
2018-04-17T23:40:34.221Z,9.20
2018-04-17T23:45:35.824Z,9.93
2018-04-17T23:50:37.389Z,10.60
2018-04-17T23:55:38.950Z,9.93
